createdAt,value
2018-07-15T00:00:41.992Z,100049.09
2018-07-15T00:03:09.605Z,100057.23
2018-07-15T00:05:37.304Z,100052.36
2018-07-15T00:08:04.913Z,100049.17
2018-07-15T00:10:43.292Z,100053.36
2018-07-15T00:13:11.580Z,100053.82
2018-07-15T00:15:39.303Z,100055.14
2018-07-15T00:18:07.134Z,100058.52
2018-07-15T00:20:34.979Z,100051.06
2018-07-15T00:23:02.566Z,100050.77
2018-07-15T00:25:30.222Z,100050.91
2018-07-15T00:27:57.839Z,100043.59
2018-07-15T00:30:25.488Z,100046.22
2018-07-15T00:32:53.122Z,100039.34
2018-07-15T00:35:20.719Z,100044.88
2018-07-15T00:37:48.360Z,100044.53
2018-07-15T00:40:16.048Z,100047.84
2018-07-15T00:42:43.651Z,100045.59
2018-07-15T00:45:11.248Z,100042.93
2018-07-15T00:47:38.856Z,100049.91
2018-07-15T00:50:06.535Z,100048.30
2018-07-15T00:52:34.236Z,100051.98
2018-07-15T00:55:01.898Z,100043.20
2018-07-15T00:57:29.563Z,100043.50
2018-07-15T00:59:57.205Z,100045.36
2018-07-15T01:02:24.793Z,100049.76
2018-07-15T01:04:52.397Z,100042.43
2018-07-15T01:07:20.022Z,100036.66
2018-07-15T01:09:47.689Z,100044.27
2018-07-15T01:12:15.320Z,100043.27
2018-07-15T01:14:43.005Z,100046.60
2018-07-15T01:17:10.696Z,100050.73
2018-07-15T01:19:38.397Z,100046.25
2018-07-15T01:22:06.065Z,100039.19
2018-07-15T01:24:33.725Z,100041.59
2018-07-15T01:27:01.365Z,100039.77
2018-07-15T01:29:29.012Z,100039.43
2018-07-15T01:31:56.709Z,100037.68
2018-07-15T01:34:24.241Z,100039.67
2018-07-15T01:36:51.863Z,100034.61
2018-07-15T01:39:19.425Z,100031.38
2018-07-15T01:41:47.009Z,100035.09
2018-07-15T01:44:14.649Z,100031.52
2018-07-15T01:46:42.285Z,100027.45
2018-07-15T01:49:09.920Z,100027.53
2018-07-15T01:51:37.534Z,100022.89
2018-07-15T01:54:05.308Z,100022.89
2018-07-15T01:56:32.928Z,100013.75
2018-07-15T01:59:00.569Z,100009.95
2018-07-15T02:01:28.164Z,100015.64
2018-07-15T02:03:55.854Z,100017.68
2018-07-15T02:06:23.408Z,100023.91
2018-07-15T02:08:51.048Z,100023.19
2018-07-15T02:13:53.139Z,100022.28
2018-07-15T02:16:20.810Z,100021.79
2018-07-15T02:18:48.516Z,100019.91
2018-07-15T02:21:16.166Z,100018.06
2018-07-15T02:23:43.839Z,100022.15
2018-07-15T02:26:11.559Z,100026.75
2018-07-15T02:28:39.235Z,100026.72
2018-07-15T02:31:06.868Z,100025.27
2018-07-15T02:33:34.450Z,100026.22
2018-07-15T02:36:02.062Z,100023.02
2018-07-15T02:38:29.761Z,100018.73
2018-07-15T02:40:57.487Z,100013.92
2018-07-15T02:43:25.997Z,100020.09
2018-07-15T02:45:53.621Z,100018.39
2018-07-15T02:48:21.294Z,100016.02
2018-07-15T02:50:48.989Z,100011.67
2018-07-15T02:53:16.569Z,100005.83
2018-07-15T02:55:44.268Z,100005.34
2018-07-15T02:58:11.905Z,100003.00
2018-07-15T03:00:39.590Z,99999.25
2018-07-15T03:03:07.240Z,99998.31
2018-07-15T03:05:34.871Z,100003.53
2018-07-15T03:08:02.481Z,100000.81
2018-07-15T03:10:30.105Z,100004.47
2018-07-15T03:12:57.718Z,99999.59
2018-07-15T03:15:26.039Z,100003.76
2018-07-15T03:17:53.686Z,100002.23
2018-07-15T03:20:21.305Z,100006.13
2018-07-15T03:22:49.444Z,100010.88
2018-07-15T03:25:17.014Z,100010.58
2018-07-15T03:27:44.661Z,100012.20
2018-07-15T03:30:12.308Z,100008.33
2018-07-15T03:32:40.008Z,100006.89
2018-07-15T03:35:07.626Z,100010.54
2018-07-15T03:37:35.266Z,100010.59
2018-07-15T03:40:02.986Z,100019.78
2018-07-15T03:42:30.670Z,100014.99
2018-07-15T03:44:58.301Z,100020.27
2018-07-15T03:47:25.902Z,100018.24
2018-07-15T03:49:53.485Z,100012.30
2018-07-15T03:52:21.157Z,100018.95
2018-07-15T03:54:48.853Z,100011.00
2018-07-15T03:57:16.538Z,100014.23
2018-07-15T03:59:44.210Z,100006.59
2018-07-15T04:02:11.861Z,100003.81
2018-07-15T04:04:39.525Z,100010.59
2018-07-15T04:07:08.219Z,100007.23
2018-07-15T04:09:35.816Z,99998.07
2018-07-15T04:12:03.465Z,100005.31
2018-07-15T04:14:31.105Z,100009.74
2018-07-15T04:16:58.726Z,100007.23
2018-07-15T04:19:26.288Z,100003.09
2018-07-15T04:21:53.908Z,100003.73
2018-07-15T04:24:21.657Z,100009.64
2018-07-15T04:26:49.404Z,100011.33
2018-07-15T04:29:17.070Z,100016.69
2018-07-15T04:31:44.736Z,100010.92
2018-07-15T04:34:12.407Z,100014.73
2018-07-15T04:36:40.001Z,100012.59
2018-07-15T04:39:08.432Z,100014.91
2018-07-15T04:41:36.054Z,100004.39
2018-07-15T04:44:04.050Z,100021.11
2018-07-15T04:46:31.737Z,100022.14
2018-07-15T04:48:59.368Z,100024.27
2018-07-15T04:51:26.963Z,100035.56
2018-07-15T04:53:54.591Z,100033.19
2018-07-15T04:56:22.245Z,100029.78
2018-07-15T04:58:50.169Z,100030.95
2018-07-15T05:01:17.779Z,100039.78
2018-07-15T05:03:45.423Z,100036.30
2018-07-15T05:06:13.042Z,100042.09
2018-07-15T05:08:40.679Z,100042.12
2018-07-15T05:11:08.345Z,100044.21
2018-07-15T05:13:36.060Z,100042.55
2018-07-15T05:16:03.823Z,100050.19
2018-07-15T05:18:31.522Z,100051.95
2018-07-15T05:20:59.109Z,100039.59
2018-07-15T05:23:26.748Z,100043.66
2018-07-15T05:25:54.328Z,100045.53
2018-07-15T05:28:22.088Z,100053.36
2018-07-15T05:30:49.745Z,100057.82
2018-07-15T05:33:17.448Z,100057.79
2018-07-15T05:35:45.098Z,100057.59
2018-07-15T05:38:12.733Z,100054.77
2018-07-15T05:40:40.352Z,100056.00
2018-07-15T05:43:08.079Z,100054.97
2018-07-15T05:45:35.782Z,100059.43
2018-07-15T05:48:03.459Z,100053.51
2018-07-15T05:50:31.050Z,100052.34
2018-07-15T05:52:58.709Z,100059.24
2018-07-15T05:55:26.347Z,100063.13
2018-07-15T05:57:54.061Z,100060.17
2018-07-15T06:00:21.714Z,100066.12
2018-07-15T06:02:49.328Z,100063.00
2018-07-15T06:05:16.970Z,100065.22
2018-07-15T06:07:44.727Z,100067.06
2018-07-15T06:10:12.396Z,100063.41
2018-07-15T06:12:40.103Z,100063.61
2018-07-15T06:15:07.719Z,100069.91
2018-07-15T06:17:35.359Z,100065.31
2018-07-15T06:20:03.423Z,100071.32
2018-07-15T06:22:31.087Z,100069.56
2018-07-15T06:24:58.700Z,100069.75
2018-07-15T06:27:26.386Z,100067.99
2018-07-15T06:29:54.058Z,100064.61
2018-07-15T06:32:21.758Z,100061.88
2018-07-15T06:34:49.434Z,100065.31
2018-07-15T06:37:17.135Z,100066.18
2018-07-15T06:39:44.873Z,100071.87
2018-07-15T06:42:12.496Z,100072.08
2018-07-15T06:44:40.125Z,100064.66
2018-07-15T06:47:07.709Z,100061.02
2018-07-15T06:49:35.379Z,100061.11
2018-07-15T06:52:03.046Z,100056.19
2018-07-15T06:54:30.912Z,100058.84
2018-07-15T06:56:58.551Z,100061.45
2018-07-15T06:59:26.195Z,100058.63
2018-07-15T07:01:53.862Z,100055.09
2018-07-15T07:04:21.477Z,100061.20
2018-07-15T07:06:49.121Z,100061.03
2018-07-15T07:09:16.737Z,100061.73
2018-07-15T07:11:44.405Z,100062.62
2018-07-15T07:14:12.092Z,100059.53
2018-07-15T07:16:39.662Z,100051.77
2018-07-15T07:19:07.856Z,100052.55
2018-07-15T07:21:35.499Z,100056.03
2018-07-15T07:24:03.121Z,100059.41
2018-07-15T07:26:30.761Z,100055.78
2018-07-15T07:28:58.509Z,100055.33
2018-07-15T07:31:26.276Z,100058.40
2018-07-15T07:33:53.991Z,100053.52
2018-07-15T07:36:21.635Z,100057.59
2018-07-15T07:38:49.415Z,100055.03
2018-07-15T07:41:17.022Z,100052.71
2018-07-15T07:43:44.720Z,100054.06
2018-07-15T07:46:12.473Z,100057.14
2018-07-15T07:48:40.213Z,100050.66
2018-07-15T07:51:07.862Z,100048.89
2018-07-15T07:53:35.569Z,100057.33
2018-07-15T07:56:03.224Z,100051.00
2018-07-15T07:58:30.829Z,100056.11
2018-07-15T08:00:58.415Z,100055.58
2018-07-15T08:03:26.895Z,100054.44
2018-07-15T08:05:54.531Z,100055.62
2018-07-15T08:08:22.125Z,100060.04
2018-07-15T08:10:49.819Z,100055.36
2018-07-15T08:13:17.451Z,100055.80
2018-07-15T08:15:45.192Z,100054.59
2018-07-15T08:18:12.864Z,100047.20
2018-07-15T08:20:40.494Z,100042.70
2018-07-15T08:23:08.242Z,100044.30
2018-07-15T08:25:35.949Z,100040.98
2018-07-15T08:28:03.632Z,100042.00
2018-07-15T08:30:48.754Z,100045.66
2018-07-15T08:33:16.434Z,100045.30
2018-07-15T08:35:44.122Z,100042.47
2018-07-15T08:38:11.776Z,100041.54
2018-07-15T08:40:39.508Z,100039.90
2018-07-15T08:43:07.211Z,100035.70
2018-07-15T08:45:34.838Z,100036.31
2018-07-15T08:48:02.536Z,100035.92
2018-07-15T08:50:30.114Z,100040.06
2018-07-15T08:52:57.794Z,100035.81
2018-07-15T08:55:25.428Z,100033.80
2018-07-15T08:57:53.143Z,100033.21
2018-07-15T09:00:20.754Z,100031.28
2018-07-15T09:02:48.814Z,100027.58
2018-07-15T09:05:16.476Z,100032.16
2018-07-15T09:07:44.211Z,100013.98
2018-07-15T09:10:11.892Z,100024.54
2018-07-15T09:12:39.664Z,100028.77
2018-07-15T09:15:07.367Z,100024.72
2018-07-15T09:17:35.053Z,100026.64
2018-07-15T09:20:02.822Z,100022.57
2018-07-15T09:22:30.587Z,100032.50
2018-07-15T09:24:58.219Z,100024.89
2018-07-15T09:27:25.875Z,100019.58
2018-07-15T09:29:53.567Z,100015.47
2018-07-15T09:32:21.238Z,100014.12
2018-07-15T09:34:49.017Z,100004.97
2018-07-15T09:37:16.670Z,100005.77
2018-07-15T09:39:44.259Z,100004.41
2018-07-15T09:42:11.874Z,99996.17
2018-07-15T09:44:39.551Z,100003.88
2018-07-15T09:47:07.170Z,100001.50
2018-07-15T09:49:34.868Z,100002.55
2018-07-15T09:52:02.650Z,100006.20
2018-07-15T09:54:30.410Z,100000.96
2018-07-15T09:56:58.096Z,99998.19
2018-07-15T09:59:25.736Z,99994.01
2018-07-15T10:01:53.432Z,99990.59
2018-07-15T10:04:21.182Z,99994.38
2018-07-15T10:06:48.884Z,99987.98
2018-07-15T10:09:16.600Z,99990.91
2018-07-15T10:11:50.875Z,99988.09
2018-07-15T10:14:18.591Z,99990.89
2018-07-15T10:16:46.223Z,99987.52
2018-07-15T10:19:13.863Z,99984.77
2018-07-15T10:21:41.590Z,99979.39
2018-07-15T10:24:09.230Z,99984.32
2018-07-15T10:26:37.033Z,99976.95
2018-07-15T10:29:04.722Z,99971.78
2018-07-15T10:31:32.725Z,99967.16
2018-07-15T10:34:00.600Z,99961.19
2018-07-15T10:36:28.362Z,99957.72
2018-07-15T10:38:56.118Z,99957.15
2018-07-15T10:41:25.958Z,99960.97
2018-07-15T10:43:53.680Z,99951.48
2018-07-15T10:46:21.409Z,99956.12
2018-07-15T10:48:49.116Z,99952.93
2018-07-15T10:51:16.821Z,99946.25
2018-07-15T10:53:44.561Z,99946.50
2018-07-15T10:56:12.319Z,99945.17
2018-07-15T10:58:40.051Z,99943.62
2018-07-15T11:01:07.886Z,99939.05
2018-07-15T11:03:35.557Z,99942.19
2018-07-15T11:06:03.201Z,99934.30
2018-07-15T11:08:30.917Z,99938.56
2018-07-15T11:10:58.632Z,99932.02
2018-07-15T11:13:26.350Z,99932.92
2018-07-15T11:15:54.015Z,99927.94
2018-07-15T11:18:21.632Z,99918.42
2018-07-15T11:20:49.328Z,99921.59
2018-07-15T11:23:17.020Z,99920.36
2018-07-15T11:25:44.720Z,99912.38
2018-07-15T11:28:12.777Z,99919.82
2018-07-15T11:30:40.712Z,99918.69
2018-07-15T11:33:08.432Z,99920.33
2018-07-15T11:35:38.161Z,99912.75
2018-07-15T11:38:05.905Z,99908.63
2018-07-15T11:40:33.732Z,99910.56
2018-07-15T11:43:01.501Z,99897.27
2018-07-15T11:45:29.283Z,99892.09
2018-07-15T11:47:56.982Z,99895.11
2018-07-15T11:50:24.932Z,99891.45
2018-07-15T11:52:52.569Z,99894.33
2018-07-15T11:55:20.341Z,99892.86
2018-07-15T11:57:48.141Z,99895.94
2018-07-15T12:00:15.790Z,99890.27
2018-07-15T12:02:43.447Z,99883.37
2018-07-15T12:05:11.221Z,99880.36
2018-07-15T12:07:38.894Z,99882.11
2018-07-15T12:10:06.695Z,99882.39
2018-07-15T12:12:34.839Z,99875.91
2018-07-15T12:15:02.573Z,99882.50
2018-07-15T12:17:30.536Z,99884.80
2018-07-15T12:19:58.207Z,99878.22
2018-07-15T12:22:25.917Z,99878.45
2018-07-15T12:24:53.658Z,99879.25
2018-07-15T12:27:21.316Z,99875.98
2018-07-15T12:29:49.350Z,99869.96
2018-07-15T12:32:17.082Z,99879.83
2018-07-15T12:34:44.782Z,99883.71
2018-07-15T12:37:12.499Z,99885.17
2018-07-15T12:39:40.195Z,99879.75
2018-07-15T12:42:08.005Z,99882.71
2018-07-15T12:44:35.732Z,99873.81
2018-07-15T12:47:03.441Z,99879.30
2018-07-15T12:49:31.218Z,99872.04
2018-07-15T12:51:58.970Z,99875.58
2018-07-15T12:54:26.601Z,99874.05
2018-07-15T12:56:54.322Z,99862.58
2018-07-15T12:59:22.043Z,99861.38
2018-07-15T13:01:49.840Z,99855.03
2018-07-15T13:04:17.615Z,99853.92
2018-07-15T13:06:45.310Z,99844.75
2018-07-15T13:09:13.082Z,99838.89
2018-07-15T13:11:40.844Z,99829.28
2018-07-15T13:14:08.680Z,99844.53
2018-07-15T13:16:36.460Z,99844.32
2018-07-15T13:19:04.176Z,99852.17
2018-07-15T13:21:33.936Z,99842.52
2018-07-15T13:24:01.799Z,99834.69
2018-07-15T13:26:29.517Z,99827.77
2018-07-15T13:28:57.232Z,99836.02
2018-07-15T13:31:25.023Z,99826.41
2018-07-15T13:33:52.789Z,99831.86
2018-07-15T13:36:20.557Z,99836.22
2018-07-15T13:38:48.285Z,99839.79
2018-07-15T13:41:16.043Z,99835.55
2018-07-15T13:43:43.848Z,99827.42
2018-07-15T13:46:11.744Z,99829.64
2018-07-15T13:48:39.634Z,99818.01
2018-07-15T13:51:07.508Z,99811.66
2018-07-15T13:53:35.116Z,99816.83
2018-07-15T13:56:02.817Z,99805.23
2018-07-15T13:58:30.508Z,99807.68
2018-07-15T14:00:58.378Z,99816.51
2018-07-15T14:03:26.062Z,99814.27
2018-07-15T14:05:53.908Z,99816.56
2018-07-15T14:08:21.759Z,99811.56
2018-07-15T14:10:49.572Z,99810.52
2018-07-15T14:13:17.377Z,99812.52
2018-07-15T14:15:45.063Z,99812.01
2018-07-15T14:18:12.924Z,99815.83
2018-07-15T14:20:40.709Z,99799.99
2018-07-15T14:23:08.419Z,99797.48
2018-07-15T14:25:36.177Z,99798.69
2018-07-15T14:28:04.352Z,99799.44
2018-07-15T14:30:32.064Z,99792.83
2018-07-15T14:32:59.874Z,99778.95
2018-07-15T14:35:27.554Z,99778.73
2018-07-15T14:37:55.202Z,99783.09
2018-07-15T14:40:22.899Z,99779.25
2018-07-15T14:42:50.601Z,99787.47
2018-07-15T14:45:18.269Z,99783.31
2018-07-15T14:47:45.991Z,99777.83
2018-07-15T14:50:13.729Z,99774.83
2018-07-15T14:52:41.451Z,99779.59
2018-07-15T14:55:09.353Z,99772.75
2018-07-15T14:57:37.121Z,99768.97
2018-07-15T15:00:04.911Z,99775.55
2018-07-15T15:02:32.586Z,99792.48
2018-07-15T15:05:00.459Z,99765.95
2018-07-15T15:07:28.232Z,99757.27
2018-07-15T15:09:56.022Z,99765.63
2018-07-15T15:12:23.731Z,99756.98
2018-07-15T15:14:51.603Z,99764.46
2018-07-15T15:19:53.702Z,99747.08
2018-07-15T15:22:21.490Z,99754.27
2018-07-15T15:24:49.214Z,99759.94
2018-07-15T15:27:16.978Z,99762.41
2018-07-15T15:29:44.871Z,99761.39
2018-07-15T15:32:12.573Z,99768.17
2018-07-15T15:34:40.522Z,99766.19
2018-07-15T15:37:08.356Z,99770.57
2018-07-15T15:39:37.276Z,99765.48
2018-07-15T15:42:05.182Z,99758.86
2018-07-15T15:44:32.917Z,99764.86
2018-07-15T15:47:00.625Z,99763.94
2018-07-15T15:49:28.434Z,99763.05
2018-07-15T15:51:56.192Z,99755.21
2018-07-15T15:54:25.302Z,99758.30
2018-07-15T15:56:52.923Z,99755.50
2018-07-15T15:59:20.607Z,99754.66
2018-07-15T16:01:48.419Z,99751.64
2018-07-15T16:04:16.241Z,99749.75
2018-07-15T16:06:44.038Z,99741.41
2018-07-15T16:09:11.757Z,99735.94
2018-07-15T16:11:39.500Z,99742.08
2018-07-15T16:14:07.363Z,99729.61
2018-07-15T16:16:35.164Z,99745.10
2018-07-15T16:19:02.905Z,99733.95
2018-07-15T16:21:30.650Z,99725.13
2018-07-15T16:23:58.408Z,99720.23
2018-07-15T16:26:26.112Z,99720.00
2018-07-15T16:28:53.933Z,99721.70
2018-07-15T16:31:21.667Z,99728.69
2018-07-15T16:33:49.408Z,99736.34
2018-07-15T16:36:17.152Z,99735.42
2018-07-15T16:38:44.960Z,99727.87
2018-07-15T16:41:12.877Z,99719.59
2018-07-15T16:43:40.648Z,99721.53
2018-07-15T16:46:09.541Z,99726.34
2018-07-15T16:48:37.378Z,99723.30
2018-07-15T16:51:05.217Z,99714.54
2018-07-15T16:53:33.335Z,99717.08
2018-07-15T16:56:02.220Z,99711.28
2018-07-15T16:58:30.020Z,99709.69
2018-07-15T17:00:57.794Z,99703.35
2018-07-15T17:03:25.543Z,99707.88
2018-07-15T17:05:53.348Z,99717.85
2018-07-15T17:08:21.043Z,99723.73
2018-07-15T17:10:48.753Z,99726.36
2018-07-15T17:13:16.626Z,99726.69
2018-07-15T17:15:44.670Z,99720.67
2018-07-15T17:18:12.391Z,99725.80
2018-07-15T17:20:40.639Z,99718.87
2018-07-15T17:23:08.511Z,99714.52
2018-07-15T17:25:36.451Z,99711.66
2018-07-15T17:28:04.745Z,99712.38
2018-07-15T17:30:32.521Z,99717.84
2018-07-15T17:33:01.637Z,99722.89
2018-07-15T17:35:29.665Z,99713.62
2018-07-15T17:37:57.911Z,99704.66
2018-07-15T17:40:25.652Z,99708.27
2018-07-15T17:42:53.459Z,99703.71
2018-07-15T17:45:22.757Z,99712.88
2018-07-15T17:47:51.025Z,99709.40
2018-07-15T17:50:19.039Z,99707.73
2018-07-15T17:52:46.822Z,99716.42
2018-07-15T17:55:14.618Z,99703.53
2018-07-15T17:57:42.485Z,99705.69
2018-07-15T18:00:10.414Z,99700.31
2018-07-15T18:02:38.290Z,99704.06
2018-07-15T18:05:06.079Z,99703.45
2018-07-15T18:07:34.017Z,99703.83
2018-07-15T18:10:01.791Z,99701.87
2018-07-15T18:12:29.536Z,99705.42
2018-07-15T18:14:57.538Z,99700.72
2018-07-15T18:17:25.449Z,99704.15
2018-07-15T18:19:53.405Z,99709.28
2018-07-15T18:22:21.416Z,99711.00
2018-07-15T18:24:49.152Z,99705.70
2018-07-15T18:27:17.133Z,99702.71
2018-07-15T18:29:44.914Z,99704.57
2018-07-15T18:32:12.632Z,99707.36
2018-07-15T18:34:40.384Z,99706.08
2018-07-15T18:37:08.206Z,99703.20
2018-07-15T18:39:36.108Z,99712.16
2018-07-15T18:42:03.890Z,99716.97
2018-07-15T18:44:32.534Z,99707.48
2018-07-15T18:47:00.727Z,99708.51
2018-07-15T18:49:28.419Z,99715.28
2018-07-15T18:51:56.290Z,99722.68
2018-07-15T18:54:24.099Z,99717.87
2018-07-15T18:56:51.991Z,99731.60
2018-07-15T18:59:19.698Z,99731.19
2018-07-15T19:01:47.464Z,99738.04
2018-07-15T19:04:15.194Z,99742.83
2018-07-15T19:06:43.112Z,99748.90
2018-07-15T19:09:10.788Z,99748.48
2018-07-15T19:11:38.767Z,99744.04
2018-07-15T19:14:06.537Z,99751.57
2018-07-15T19:16:34.375Z,99756.51
2018-07-15T19:19:02.248Z,99757.16
2018-07-15T19:21:30.221Z,99755.80
2018-07-15T19:23:58.067Z,99768.98
2018-07-15T19:26:25.736Z,99767.53
2018-07-15T19:28:53.720Z,99763.55
2018-07-15T19:31:21.582Z,99767.88
2018-07-15T19:33:49.731Z,99770.84
2018-07-15T19:36:17.459Z,99772.91
2018-07-15T19:38:45.254Z,99772.81
2018-07-15T19:41:13.144Z,99776.70
2018-07-15T19:43:41.017Z,99778.42
2018-07-15T19:46:09.023Z,99780.10
2018-07-15T19:48:36.820Z,99783.33
2018-07-15T19:51:04.740Z,99781.70
2018-07-15T19:53:32.742Z,99778.53
2018-07-15T19:56:00.791Z,99786.81
2018-07-15T19:58:28.612Z,99786.11
2018-07-15T20:00:56.456Z,99792.18
2018-07-15T20:03:24.257Z,99798.27
2018-07-15T20:05:52.176Z,99803.14
2018-07-15T20:08:19.959Z,99809.86
2018-07-15T20:10:47.724Z,99811.75
2018-07-15T20:13:15.589Z,99805.58
2018-07-15T20:15:43.515Z,99805.38
2018-07-15T20:18:11.398Z,99805.78
2018-07-15T20:20:39.139Z,99803.92
2018-07-15T20:23:06.956Z,99808.63
2018-07-15T20:25:34.945Z,99813.69
2018-07-15T20:28:03.692Z,99815.70
2018-07-15T20:30:31.572Z,99812.12
2018-07-15T20:32:59.350Z,99806.43
2018-07-15T20:35:27.492Z,99809.70
2018-07-15T20:37:55.774Z,99813.90
2018-07-15T20:40:23.666Z,99817.55
2018-07-15T20:42:52.947Z,99803.31
2018-07-15T20:45:20.807Z,99806.12
2018-07-15T20:47:48.816Z,99808.64
2018-07-15T20:50:17.060Z,99806.19
2018-07-15T20:52:45.023Z,99805.98
2018-07-15T20:55:12.965Z,99821.05
2018-07-15T20:57:40.786Z,99818.28
2018-07-15T21:00:08.624Z,99815.37
2018-07-15T21:02:36.397Z,99806.39
2018-07-15T21:05:04.214Z,99807.38
2018-07-15T21:07:34.022Z,99803.63
2018-07-15T21:10:01.959Z,99805.14
2018-07-15T21:12:29.717Z,99804.92
2018-07-15T21:14:57.410Z,99803.07
2018-07-15T21:17:25.171Z,99805.86
2018-07-15T21:19:52.989Z,99806.12
2018-07-15T21:22:20.873Z,99802.48
2018-07-15T21:24:48.651Z,99802.13
2018-07-15T21:27:16.412Z,99804.08
2018-07-15T21:29:44.303Z,99799.69
2018-07-15T21:32:12.997Z,99794.28
2018-07-15T21:34:40.875Z,99790.59
2018-07-15T21:37:08.660Z,99798.34
2018-07-15T21:39:36.390Z,99801.37
2018-07-15T21:42:04.217Z,99806.01
2018-07-15T21:44:32.068Z,99804.09
2018-07-15T21:46:59.747Z,99801.31
2018-07-15T21:49:27.494Z,99801.88
2018-07-15T21:51:55.248Z,99811.69
2018-07-15T21:54:22.870Z,99815.73
2018-07-15T21:56:50.637Z,99807.52
2018-07-15T21:59:18.532Z,99817.53
2018-07-15T22:01:46.330Z,99817.08
2018-07-15T22:04:14.203Z,99820.05
2018-07-15T22:06:59.677Z,99812.11
2018-07-15T22:09:56.833Z,99815.11
2018-07-15T22:12:24.581Z,99813.44
2018-07-15T22:14:52.411Z,99818.82
2018-07-15T22:17:20.339Z,99813.16
2018-07-15T22:19:48.032Z,99810.34
2018-07-15T22:22:16.328Z,99805.17
2018-07-15T22:24:44.024Z,99813.95
2018-07-15T22:27:12.025Z,99809.55
2018-07-15T22:29:39.758Z,99812.22
2018-07-15T22:32:07.422Z,99813.09
2018-07-15T22:34:35.392Z,99808.94
2018-07-15T22:37:03.379Z,99812.52
2018-07-15T22:39:31.106Z,99813.56
2018-07-15T22:41:58.850Z,99810.15
2018-07-15T22:44:26.538Z,99812.64
2018-07-15T22:46:54.248Z,99816.66
2018-07-15T22:49:22.004Z,99825.00
2018-07-15T22:51:49.645Z,99826.73
2018-07-15T22:54:17.632Z,99828.88
2018-07-15T22:56:45.453Z,99829.27
2018-07-15T22:59:13.161Z,99825.64
2018-07-15T23:01:40.826Z,99824.52
2018-07-15T23:04:08.495Z,99825.70
2018-07-15T23:06:37.658Z,99821.56
2018-07-15T23:09:07.080Z,99827.19
2018-07-15T23:11:34.923Z,99823.91
2018-07-15T23:14:02.650Z,99822.23
2018-07-15T23:16:30.306Z,99824.05
2018-07-15T23:18:57.942Z,99825.91
2018-07-15T23:21:25.653Z,99822.41
2018-07-15T23:23:53.441Z,99827.38
2018-07-15T23:26:21.287Z,99822.29
2018-07-15T23:28:48.985Z,99824.09
2018-07-15T23:31:16.884Z,99821.46
2018-07-15T23:33:44.567Z,99828.27
2018-07-15T23:36:12.272Z,99824.61
2018-07-15T23:38:39.963Z,99822.81
2018-07-15T23:41:07.631Z,99819.00
2018-07-15T23:43:35.286Z,99818.33
2018-07-15T23:46:02.927Z,99819.14
2018-07-15T23:48:30.578Z,99813.02
2018-07-15T23:50:58.194Z,99810.20
2018-07-15T23:53:25.930Z,99814.00
2018-07-15T23:55:53.632Z,99817.98
2018-07-15T23:58:21.483Z,99810.21
